Time;durP1;ratioP1;P1;durP2;ratioP2;P2;SDS_P1;SDS_P2;PMS_P1;PMS_P2;Temp;Humidity;BMP_temperature;BMP_pressure;BME280_temperature;BME280_humidity;BME280_pressure;Samples;Min_cycle;Max_cycle;Signal;HPM_P1;HPM_P2
2022/04/12 00:04:52;;;;;;;13.55;5.18;;;;;;;;;;10447487;28;20013;-70
2022/04/12 00:09:52;;;;;;;11.10;4.65;;;;;;;;;;10473680;28;20029;-75
2022/04/12 00:14:52;;;;;;;7.33;4.97;;;;;;;;;;10467304;28;20056;-71
2022/04/12 00:19:53;;;;;;;7.68;4.55;;;;;;;;;;10465709;28;20032;-74
2022/04/12 00:24:54;;;;;;;11.47;4.70;;;;;;;;;;10449884;28;20089;-76
2022/04/12 00:29:55;;;;;;;7.72;5.43;;;;;;;;;;10458798;28;20781;-71
2022/04/12 00:34:55;;;;;;;8.57;6.10;;;;;;;;;;10446707;28;20033;-70
2022/04/12 00:39:55;;;;;;;8.35;5.50;;;;;;;;;;10446901;28;20020;-71
2022/04/12 00:44:56;;;;;;;9.13;5.07;;;;;;;;;;10446637;28;20443;-76
2022/04/12 00:49:57;;;;;;;10.20;6.00;;;;;;;;;;10448363;28;20470;-76
2022/04/12 00:54:57;;;;;;;7.63;5.57;;;;;;;;;;10466363;28;20033;-74
2022/04/12 00:59:59;;;;;;;11.73;6.15;;;;;;;;;;10419924;28;20057;-71
2022/04/12 01:05:00;;;;;;;7.95;5.03;;;;;;;;;;10424029;28;20507;-72
2022/04/12 01:10:00;;;;;;;20.80;4.72;;;;;;;;;;10423374;28;20107;-70
2022/04/12 01:15:14;;;;;;;11.05;6.38;;;;;;;;;;10421245;28;20032;-69
2022/04/12 01:20:24;;;;;;;14.23;5.30;;;;;;;;;;10417334;28;20025;-75
2022/04/12 01:25:25;;;;;;;9.90;5.63;;;;;;;;;;10424174;28;20025;-70
2022/04/12 01:30:25;;;;;;;12.32;6.35;;;;;;;;;;10412309;28;20025;-77
2022/04/12 01:35:25;;;;;;;20.15;7.60;;;;;;;;;;10406087;28;20610;-72
2022/04/12 01:40:25;;;;;;;11.87;6.33;;;;;;;;;;10404545;28;20021;-75
2022/04/12 01:45:26;;;;;;;14.45;9.00;;;;;;;;;;10415700;28;20033;-70
2022/04/12 01:50:26;;;;;;;15.93;7.53;;;;;;;;;;10425734;28;20115;-77
2022/04/12 01:55:26;;;;;;;12.35;8.27;;;;;;;;;;10419775;28;20043;-69
2022/04/12 02:00:27;;;;;;;11.98;8.23;;;;;;;;;;10407671;28;20061;-75
2022/04/12 02:05:27;;;;;;;16.27;7.23;;;;;;;;;;10408271;28;20033;-75
2022/04/12 02:10:27;;;;;;;11.40;5.80;;;;;;;;;;10415718;28;20102;-72
2022/04/12 02:15:28;;;;;;;13.35;6.07;;;;;;;;;;10411075;28;20033;-70
2022/04/12 02:20:28;;;;;;;6.87;6.17;;;;;;;;;;10410851;28;20032;-71
2022/04/12 02:25:28;;;;;;;9.20;5.97;;;;;;;;;;10410463;28;20033;-70
2022/04/12 02:30:29;;;;;;;11.88;7.93;;;;;;;;;;10414351;28;20043;-75
2022/04/12 02:35:29;;;;;;;12.93;7.53;;;;;;;;;;10414848;28;20109;-71
2022/04/12 02:40:30;;;;;;;9.83;6.70;;;;;;;;;;10414804;28;20674;-75
2022/04/12 02:45:30;;;;;;;11.32;8.52;;;;;;;;;;10411737;28;20412;-77
2022/04/12 02:50:30;;;;;;;12.27;8.95;;;;;;;;;;10411483;28;20025;-76
2022/04/12 02:55:30;;;;;;;24.47;8.27;;;;;;;;;;10409813;28;20111;-75
2022/04/12 03:00:31;;;;;;;19.85;8.93;;;;;;;;;;10409476;28;20450;-71
2022/04/12 03:05:31;;;;;;;16.63;8.48;;;;;;;;;;10412706;28;20030;-75
2022/04/12 03:10:31;;;;;;;16.70;8.27;;;;;;;;;;10410082;28;20036;-71
2022/04/12 03:15:31;;;;;;;11.20;9.67;;;;;;;;;;10410437;28;20144;-71
2022/04/12 03:20:32;;;;;;;13.63;8.87;;;;;;;;;;10414835;28;20112;-72
2022/04/12 03:25:33;;;;;;;21.38;9.00;;;;;;;;;;10415847;28;20120;-69
2022/04/12 03:30:33;;;;;;;15.40;8.50;;;;;;;;;;10414876;28;20544;-70
2022/04/12 03:35:33;;;;;;;22.60;8.80;;;;;;;;;;10410825;28;20473;-72
2022/04/12 03:40:34;;;;;;;17.63;9.82;;;;;;;;;;10415725;28;20084;-71
2022/04/12 03:45:34;;;;;;;18.53;8.90;;;;;;;;;;10416127;28;20025;-69
2022/04/12 03:50:34;;;;;;;17.80;10.02;;;;;;;;;;10399297;28;20686;-71
2022/04/12 03:55:38;;;;;;;37.20;12.13;;;;;;;;;;10409002;28;20534;-71
2022/04/12 04:00:39;;;;;;;32.92;12.63;;;;;;;;;;10419995;28;20053;-72
2022/04/12 04:05:39;;;;;;;29.10;12.00;;;;;;;;;;10423929;28;20029;-72
2022/04/12 04:10:40;;;;;;;22.45;11.93;;;;;;;;;;10414261;28;20027;-72
2022/04/12 04:15:41;;;;;;;31.80;11.55;;;;;;;;;;10416806;28;20029;-72
2022/04/12 04:20:42;;;;;;;17.23;8.10;;;;;;;;;;10408187;28;20021;-72
2022/04/12 04:25:42;;;;;;;23.55;7.95;;;;;;;;;;10408852;28;20029;-73
2022/04/12 04:30:47;;;;;;;12.47;6.27;;;;;;;;;;10421930;28;20051;-74
2022/04/12 04:35:48;;;;;;;15.70;6.82;;;;;;;;;;10423312;28;20296;-72
2022/04/12 04:40:49;;;;;;;11.85;6.32;;;;;;;;;;10424716;28;20029;-71
2022/04/12 04:45:49;;;;;;;9.00;6.68;;;;;;;;;;10422193;28;20108;-74
2022/04/12 04:50:49;;;;;;;16.10;7.45;;;;;;;;;;10420991;28;20021;-73
2022/04/12 04:55:49;;;;;;;8.23;6.70;;;;;;;;;;10422287;28;20035;-73
2022/04/12 05:00:50;;;;;;;23.98;6.25;;;;;;;;;;10418495;28;20300;-72
2022/04/12 05:05:50;;;;;;;17.48;8.93;;;;;;;;;;10420775;28;20021;-71
2022/04/12 05:10:51;;;;;;;19.13;8.35;;;;;;;;;;10421004;28;20120;-72
2022/04/12 05:15:51;;;;;;;9.95;7.38;;;;;;;;;;10423644;28;20052;-73
2022/04/12 05:20:52;;;;;;;8.50;4.60;;;;;;;;;;10418824;28;20029;-71
2022/04/12 05:25:53;;;;;;;11.95;5.45;;;;;;;;;;10415754;28;20136;-72
2022/04/12 05:30:54;;;;;;;12.93;5.65;;;;;;;;;;10416690;28;20083;-74
2022/04/12 05:35:54;;;;;;;7.40;4.27;;;;;;;;;;10425162;28;20056;-72
2022/04/12 05:40:55;;;;;;;5.28;3.63;;;;;;;;;;10423134;28;20484;-72
2022/04/12 05:45:55;;;;;;;10.05;3.47;;;;;;;;;;10431539;28;20477;-72
2022/04/12 05:50:55;;;;;;;7.83;4.83;;;;;;;;;;10431014;28;20461;-75
2022/04/12 05:55:55;;;;;;;7.85;4.78;;;;;;;;;;10429304;28;20107;-72
2022/04/12 06:00:56;;;;;;;11.52;5.68;;;;;;;;;;10426448;28;20155;-73
2022/04/12 06:05:56;;;;;;;18.15;8.20;;;;;;;;;;10423360;28;20033;-72
2022/04/12 06:10:56;;;;;;;16.53;6.90;;;;;;;;;;10429519;28;20247;-73
2022/04/12 06:15:57;;;;;;;21.17;9.25;;;;;;;;;;10427661;28;20091;-72
2022/04/12 06:20:57;;;;;;;18.73;10.50;;;;;;;;;;10411374;28;20722;-76
2022/04/12 06:25:57;;;;;;;22.83;11.63;;;;;;;;;;10433223;28;20499;-75
2022/04/12 06:30:58;;;;;;;19.98;10.55;;;;;;;;;;10427196;28;20041;-72
2022/04/12 06:35:58;;;;;;;21.88;8.80;;;;;;;;;;10426307;28;20462;-73
2022/04/12 06:40:58;;;;;;;13.48;8.90;;;;;;;;;;10427727;28;20114;-71
2022/04/12 06:45:59;;;;;;;15.13;8.33;;;;;;;;;;10411487;28;20025;-71
2022/04/12 06:50:59;;;;;;;19.65;9.32;;;;;;;;;;10426893;28;20125;-71
2022/04/12 06:55:59;;;;;;;16.75;8.07;;;;;;;;;;10424765;28;20056;-71
2022/04/12 07:01:00;;;;;;;21.45;8.93;;;;;;;;;;10427550;28;20053;-76
2022/04/12 07:06:00;;;;;;;21.53;8.63;;;;;;;;;;10427001;28;20086;-73
2022/04/12 07:11:00;;;;;;;13.93;6.88;;;;;;;;;;10425983;28;20123;-73
2022/04/12 07:16:02;;;;;;;18.73;8.53;;;;;;;;;;10408043;28;20052;-72
2022/04/12 07:21:02;;;;;;;12.63;7.35;;;;;;;;;;10424913;28;20314;-73
2022/04/12 07:26:03;;;;;;;13.55;6.10;;;;;;;;;;10427411;28;20572;-76
2022/04/12 07:31:04;;;;;;;21.05;7.78;;;;;;;;;;10426183;28;20481;-76
2022/04/12 07:36:05;;;;;;;12.52;6.97;;;;;;;;;;10425539;28;20041;-75
2022/04/12 07:41:05;;;;;;;13.57;6.97;;;;;;;;;;10427127;28;20028;-72
2022/04/12 07:46:06;;;;;;;17.10;7.80;;;;;;;;;;10422866;28;20029;-73
2022/04/12 07:51:07;;;;;;;16.50;6.60;;;;;;;;;;10414985;28;20033;-73
2022/04/12 07:56:07;;;;;;;12.50;6.10;;;;;;;;;;10422024;28;20034;-72
2022/04/12 08:01:08;;;;;;;25.93;10.20;;;;;;;;;;10462226;28;20060;-75
2022/04/12 08:06:08;;;;;;;13.88;7.25;;;;;;;;;;10448839;28;20370;-75
2022/04/12 08:11:08;;;;;;;11.87;6.27;;;;;;;;;;10449434;28;20106;-73
2022/04/12 08:16:09;;;;;;;6.55;1.90;;;;;;;;;;10452015;28;20020;-75
2022/04/12 08:21:10;;;;;;;5.30;1.67;;;;;;;;;;10468370;28;20081;-72
2022/04/12 08:26:10;;;;;;;6.37;2.20;;;;;;;;;;10430740;28;20025;-72
2022/04/12 08:31:10;;;;;;;4.23;2.23;;;;;;;;;;10446422;28;20052;-75
2022/04/12 08:36:11;;;;;;;3.45;2.08;;;;;;;;;;10443265;28;20065;-73
2022/04/12 08:41:13;;;;;;;4.05;1.90;;;;;;;;;;10449411;28;20078;-77
2022/04/12 08:46:13;;;;;;;9.25;2.55;;;;;;;;;;10454532;28;20024;-76
2022/04/12 08:51:14;;;;;;;7.70;2.33;;;;;;;;;;10445070;28;20025;-72
2022/04/12 08:56:14;;;;;;;5.43;1.90;;;;;;;;;;10439868;28;20303;-75
2022/04/12 09:01:15;;;;;;;5.63;2.83;;;;;;;;;;10463682;28;20314;-73
2022/04/12 09:06:15;;;;;;;5.40;2.58;;;;;;;;;;10443278;28;20035;-74
2022/04/12 09:11:17;;;;;;;5.85;2.70;;;;;;;;;;10463645;28;20021;-71
2022/04/12 09:16:18;;;;;;;10.70;2.97;;;;;;;;;;10436345;28;20733;-75
2022/04/12 09:21:19;;;;;;;6.90;2.90;;;;;;;;;;10453023;28;20024;-72
2022/04/12 09:26:23;;;;;;;5.55;3.45;;;;;;;;;;10447378;28;20044;-77
2022/04/12 09:31:24;;;;;;;8.90;2.20;;;;;;;;;;10454010;28;20021;-69
2022/04/12 09:36:24;;;;;;;9.63;2.40;;;;;;;;;;10448092;28;20055;-72
2022/04/12 09:41:26;;;;;;;9.60;2.65;;;;;;;;;;10463223;28;20563;-72
2022/04/12 09:46:27;;;;;;;8.05;2.53;;;;;;;;;;10439724;28;20025;-78
2022/04/12 09:51:27;;;;;;;8.70;2.03;;;;;;;;;;10446647;28;20504;-78
2022/04/12 09:56:29;;;;;;;5.60;2.10;;;;;;;;;;10431196;28;20024;-73
2022/04/12 10:01:31;;;;;;;6.22;2.25;;;;;;;;;;10446676;28;20466;-71
2022/04/12 10:06:31;;;;;;;6.97;1.95;;;;;;;;;;10428058;28;20364;-72
2022/04/12 10:11:32;;;;;;;2.67;1.33;;;;;;;;;;10427005;28;20036;-73
2022/04/12 10:16:34;;;;;;;3.30;1.45;;;;;;;;;;10444167;28;20033;-73
2022/04/12 10:21:35;;;;;;;7.55;1.42;;;;;;;;;;10443142;28;20036;-72
2022/04/12 10:26:35;;;;;;;3.25;1.25;;;;;;;;;;10464028;28;20033;-72
2022/04/12 10:31:35;;;;;;;3.30;1.37;;;;;;;;;;10449065;28;20056;-71
2022/04/12 10:36:54;;;;;;;4.60;1.50;;;;;;;;;;10458768;28;20024;-77
2022/04/12 10:41:55;;;;;;;2.58;1.50;;;;;;;;;;10458433;28;20032;-71
2022/04/12 10:46:56;;;;;;;2.67;1.38;;;;;;;;;;10470526;28;20486;-72
2022/04/12 10:51:59;;;;;;;2.60;1.20;;;;;;;;;;10469126;28;20084;-71
2022/04/12 10:57:18;;;;;;;4.30;1.17;;;;;;;;;;10478351;28;20575;-77
2022/04/12 11:02:18;;;;;;;2.05;1.20;;;;;;;;;;10469040;28;20068;-75
2022/04/12 11:07:28;;;;;;;1.63;1.00;;;;;;;;;;10462477;28;20707;-72
2022/04/12 11:12:29;;;;;;;3.20;1.25;;;;;;;;;;10435523;28;20044;-78
2022/04/12 11:17:35;;;;;;;3.28;1.30;;;;;;;;;;10432756;28;20500;-71
2022/04/12 11:22:42;;;;;;;2.08;1.50;;;;;;;;;;10449600;28;20420;-70
2022/04/12 11:27:42;;;;;;;7.72;1.88;;;;;;;;;;10446843;28;20017;-71
2022/04/12 11:32:42;;;;;;;7.70;1.50;;;;;;;;;;10450751;28;20028;-75
2022/04/12 11:37:43;;;;;;;1.63;1.53;;;;;;;;;;10469941;28;20369;-71
2022/04/12 11:42:43;;;;;;;5.57;1.40;;;;;;;;;;10446310;28;20039;-70
2022/04/12 11:47:44;;;;;;;5.78;1.70;;;;;;;;;;10461279;28;20486;-71
2022/04/12 11:52:45;;;;;;;3.47;1.27;;;;;;;;;;10459733;28;20705;-72
2022/04/12 11:57:45;;;;;;;2.30;1.45;;;;;;;;;;10465630;28;20117;-74
2022/04/12 12:02:45;;;;;;;3.97;0.97;;;;;;;;;;10465868;28;20036;-76
2022/04/12 12:07:46;;;;;;;5.00;1.40;;;;;;;;;;10465841;28;20029;-71
2022/04/12 12:12:47;;;;;;;3.15;1.00;;;;;;;;;;10451050;28;20028;-75
2022/04/12 12:17:48;;;;;;;3.95;1.50;;;;;;;;;;10456272;28;20035;-72
2022/04/12 12:22:52;;;;;;;2.75;1.45;;;;;;;;;;10444760;28;20035;-75
2022/04/12 12:27:53;;;;;;;4.03;1.70;;;;;;;;;;10463581;28;20100;-72
2022/04/12 12:32:56;;;;;;;2.40;1.63;;;;;;;;;;10449532;28;20044;-74
2022/04/12 12:38:08;;;;;;;2.28;1.30;;;;;;;;;;10455909;28;20078;-76
2022/04/12 12:43:13;;;;;;;2.08;1.27;;;;;;;;;;10446700;28;20104;-71
2022/04/12 12:48:15;;;;;;;2.95;1.70;;;;;;;;;;10446190;28;20053;-71
2022/04/12 12:53:18;;;;;;;2.88;1.15;;;;;;;;;;10446350;28;20068;-76
2022/04/12 12:58:20;;;;;;;3.78;1.48;;;;;;;;;;10451157;28;20045;-75
2022/04/12 13:03:22;;;;;;;2.17;1.42;;;;;;;;;;10450795;28;20033;-72
2022/04/12 13:08:32;;;;;;;2.28;1.65;;;;;;;;;;10446643;28;20035;-79
2022/04/12 13:13:33;;;;;;;4.53;1.77;;;;;;;;;;10448883;28;20029;-72
2022/04/12 13:18:33;;;;;;;2.50;1.80;;;;;;;;;;10447708;28;20078;-73
2022/04/12 13:23:33;;;;;;;2.90;1.60;;;;;;;;;;10447182;28;20025;-76
2022/04/12 13:28:34;;;;;;;4.78;1.15;;;;;;;;;;10454432;28;20021;-72
2022/04/12 13:33:34;;;;;;;2.65;1.75;;;;;;;;;;10444711;28;20066;-74
2022/04/12 13:38:34;;;;;;;2.47;1.58;;;;;;;;;;10441491;28;20112;-73
2022/04/12 13:43:35;;;;;;;2.10;1.13;;;;;;;;;;10445442;28;20021;-71
2022/04/12 13:48:36;;;;;;;4.50;3.03;;;;;;;;;;10447094;28;20074;-73
2022/04/12 13:53:36;;;;;;;4.18;1.63;;;;;;;;;;10456397;28;20075;-70
2022/04/12 13:58:37;;;;;;;3.35;1.73;;;;;;;;;;10452402;28;20405;-70
2022/04/12 14:03:37;;;;;;;2.00;1.50;;;;;;;;;;10438024;28;20060;-68
2022/04/12 14:08:37;;;;;;;3.28;1.60;;;;;;;;;;10456495;28;20085;-71
2022/04/12 14:13:41;;;;;;;7.43;2.25;;;;;;;;;;10440625;28;20028;-70
2022/04/12 14:18:42;;;;;;;4.82;1.77;;;;;;;;;;10449832;28;20072;-78
2022/04/12 14:23:42;;;;;;;2.88;1.67;;;;;;;;;;10453724;28;20548;-70
2022/04/12 14:28:43;;;;;;;2.97;1.45;;;;;;;;;;10451824;28;20552;-70
2022/04/12 14:33:43;;;;;;;1.80;1.20;;;;;;;;;;10464437;28;20028;-73
2022/04/12 14:38:43;;;;;;;2.40;1.40;;;;;;;;;;10455244;28;20145;-70
2022/04/12 14:43:44;;;;;;;10.30;1.95;;;;;;;;;;10451965;28;20089;-71
2022/04/12 14:48:45;;;;;;;3.47;1.90;;;;;;;;;;10442616;28;20029;-73
2022/04/12 14:53:45;;;;;;;3.27;1.47;;;;;;;;;;10470071;28;20051;-77
2022/04/12 14:58:46;;;;;;;2.95;1.80;;;;;;;;;;10469783;28;20430;-75
2022/04/12 15:03:46;;;;;;;4.55;1.98;;;;;;;;;;10450536;28;20148;-75
2022/04/12 15:08:47;;;;;;;5.30;1.50;;;;;;;;;;10458914;28;20478;-71
2022/04/12 15:13:47;;;;;;;4.95;1.73;;;;;;;;;;10459865;28;20552;-72
2022/04/12 15:18:49;;;;;;;1.92;1.55;;;;;;;;;;10434156;28;20097;-74
2022/04/12 15:23:49;;;;;;;3.10;1.20;;;;;;;;;;10448422;28;20037;-72
2022/04/12 15:28:49;;;;;;;4.65;1.73;;;;;;;;;;10445994;28;20400;-71
2022/04/12 15:33:51;;;;;;;4.40;3.20;;;;;;;;;;10470438;28;20041;-75
2022/04/12 15:38:54;;;;;;;5.25;2.20;;;;;;;;;;10455664;28;20033;-71
2022/04/12 15:43:54;;;;;;;2.60;1.65;;;;;;;;;;10446665;28;20025;-70
2022/04/12 15:48:55;;;;;;;14.30;2.93;;;;;;;;;;10450952;28;20488;-71
2022/04/12 15:53:55;;;;;;;5.10;2.95;;;;;;;;;;10443023;28;20029;-71
2022/04/12 15:58:56;;;;;;;4.00;2.33;;;;;;;;;;10451059;28;20106;-69
2022/04/12 16:03:57;;;;;;;79.00;31.15;;;;;;;;;;10447446;28;20036;-77
2022/04/12 16:08:57;;;;;;;5.63;2.97;;;;;;;;;;10445035;28;20022;-70
2022/04/12 16:13:57;;;;;;;2.00;1.43;;;;;;;;;;10449407;28;20123;-70
2022/04/12 16:18:58;;;;;;;8.38;1.67;;;;;;;;;;10467593;28;20306;-72
2022/04/12 16:23:58;;;;;;;6.93;2.20;;;;;;;;;;10445699;28;20028;-77
2022/04/12 16:28:58;;;;;;;4.72;2.13;;;;;;;;;;10447012;28;20479;-72
2022/04/12 16:33:59;;;;;;;3.75;1.75;;;;;;;;;;10443564;28;20036;-73
2022/04/12 16:38:59;;;;;;;4.05;1.30;;;;;;;;;;10455944;28;20056;-70
2022/04/12 16:44:00;;;;;;;5.43;1.83;;;;;;;;;;10445263;28;20047;-71
2022/04/12 16:49:00;;;;;;;6.50;2.25;;;;;;;;;;10424578;28;20025;-76
2022/04/12 16:54:01;;;;;;;13.02;2.35;;;;;;;;;;10430917;28;20481;-70
2022/04/12 16:59:03;;;;;;;4.20;2.33;;;;;;;;;;10401495;28;20263;-70
2022/04/12 17:04:03;;;;;;;5.65;3.10;;;;;;;;;;10422057;28;20033;-70
2022/04/12 17:09:03;;;;;;;5.87;3.23;;;;;;;;;;10422545;28;20473;-71
2022/04/12 17:14:04;;;;;;;6.03;2.43;;;;;;;;;;10424065;28;20511;-71
2022/04/12 17:19:04;;;;;;;9.60;2.67;;;;;;;;;;10412986;28;20264;-69
2022/04/12 17:24:05;;;;;;;7.78;3.33;;;;;;;;;;10421602;28;20593;-70
2022/04/12 17:29:06;;;;;;;5.43;2.40;;;;;;;;;;10424431;28;20099;-70
2022/04/12 17:34:08;;;;;;;4.22;2.05;;;;;;;;;;10422802;28;20033;-71
2022/04/12 17:39:08;;;;;;;9.82;3.13;;;;;;;;;;10417503;28;20060;-75
2022/04/12 17:44:08;;;;;;;5.57;2.08;;;;;;;;;;10427605;28;20123;-75
2022/04/12 17:49:09;;;;;;;2.57;2.00;;;;;;;;;;10446134;28;20098;-70
2022/04/12 17:54:09;;;;;;;4.55;3.00;;;;;;;;;;10438289;28;20456;-73
2022/04/12 17:59:11;;;;;;;7.32;3.03;;;;;;;;;;10423297;28;20047;-70
2022/04/12 18:04:11;;;;;;;9.43;3.20;;;;;;;;;;10437233;28;20033;-69
2022/04/12 18:09:15;;;;;;;13.93;4.70;;;;;;;;;;10429076;28;20099;-70
2022/04/12 18:14:16;;;;;;;12.95;3.75;;;;;;;;;;10425702;28;20439;-72
2022/04/12 18:19:16;;;;;;;7.77;3.90;;;;;;;;;;10436524;28;20029;-73
2022/04/12 18:24:16;;;;;;;8.23;3.67;;;;;;;;;;10442208;28;20024;-72
2022/04/12 18:29:17;;;;;;;9.98;3.85;;;;;;;;;;10423663;28;20021;-74
2022/04/12 18:34:18;;;;;;;15.90;5.05;;;;;;;;;;10439297;28;20021;-74
2022/04/12 18:39:18;;;;;;;15.23;4.97;;;;;;;;;;10434581;28;20029;-73
2022/04/12 18:44:18;;;;;;;13.73;4.88;;;;;;;;;;10435964;28;20112;-71
2022/04/12 18:49:18;;;;;;;8.90;4.77;;;;;;;;;;10430584;28;20327;-71
2022/04/12 18:54:19;;;;;;;13.57;6.45;;;;;;;;;;10447431;28;20029;-70
2022/04/12 18:59:21;;;;;;;16.67;7.35;;;;;;;;;;10434100;28;20049;-72
2022/04/12 19:04:21;;;;;;;10.10;6.72;;;;;;;;;;10449106;28;20029;-71
2022/04/12 19:09:21;;;;;;;12.13;5.47;;;;;;;;;;10447803;28;20021;-71
2022/04/12 19:14:22;;;;;;;18.10;6.27;;;;;;;;;;10433318;28;20275;-74
2022/04/12 19:19:22;;;;;;;15.88;5.88;;;;;;;;;;10425459;28;20028;-71
2022/04/12 19:24:22;;;;;;;12.73;6.78;;;;;;;;;;10413103;28;20086;-70
2022/04/12 19:29:22;;;;;;;15.50;7.43;;;;;;;;;;10405917;28;20469;-74
2022/04/12 19:34:23;;;;;;;15.95;8.23;;;;;;;;;;10407238;28;20025;-69
2022/04/12 19:39:23;;;;;;;14.07;7.50;;;;;;;;;;10406044;28;20025;-72
2022/04/12 19:44:23;;;;;;;15.05;7.45;;;;;;;;;;10439345;28;20068;-75
2022/04/12 19:49:24;;;;;;;17.67;7.40;;;;;;;;;;10446140;28;20025;-71
2022/04/12 19:54:26;;;;;;;14.25;7.63;;;;;;;;;;10444928;28;20021;-74
2022/04/12 19:59:26;;;;;;;20.48;7.97;;;;;;;;;;10428001;28;20067;-71
2022/04/12 20:04:26;;;;;;;18.07;7.97;;;;;;;;;;10445594;28;20626;-71
2022/04/12 20:09:27;;;;;;;12.07;6.40;;;;;;;;;;10445417;28;20469;-71
2022/04/12 20:14:28;;;;;;;8.40;6.40;;;;;;;;;;10428417;28;20029;-72
2022/04/12 20:19:28;;;;;;;16.15;7.25;;;;;;;;;;10428260;28;20028;-73
2022/04/12 20:24:28;;;;;;;24.43;6.97;;;;;;;;;;10444708;28;20202;-70
2022/04/12 20:29:28;;;;;;;17.02;5.68;;;;;;;;;;10444882;28;20025;-72
2022/04/12 20:34:29;;;;;;;13.17;6.57;;;;;;;;;;10428086;28;20021;-74
2022/04/12 20:39:30;;;;;;;10.32;6.20;;;;;;;;;;10428159;28;20025;-76
2022/04/12 20:44:33;;;;;;;13.68;6.50;;;;;;;;;;10443955;28;20032;-72
2022/04/12 20:49:33;;;;;;;7.75;5.28;;;;;;;;;;10444827;28;20089;-71
2022/04/12 20:54:34;;;;;;;14.05;5.25;;;;;;;;;;10435425;28;20029;-69
2022/04/12 20:59:34;;;;;;;5.97;3.80;;;;;;;;;;10420704;28;20080;-70
2022/04/12 21:04:34;;;;;;;6.07;3.67;;;;;;;;;;10385965;28;20037;-73
2022/04/12 21:09:37;;;;;;;6.28;3.78;;;;;;;;;;10403134;28;20048;-71
2022/04/12 21:14:38;;;;;;;10.52;3.95;;;;;;;;;;10401993;28;20417;-70
2022/04/12 21:19:38;;;;;;;6.13;3.83;;;;;;;;;;10385872;28;20029;-78
2022/04/12 21:24:38;;;;;;;13.52;4.45;;;;;;;;;;10401588;28;20028;-74
2022/04/12 21:29:39;;;;;;;6.40;3.80;;;;;;;;;;10401897;28;20086;-70
2022/04/12 21:34:39;;;;;;;8.20;3.87;;;;;;;;;;10403877;28;20447;-71
2022/04/12 21:39:39;;;;;;;8.82;4.50;;;;;;;;;;10385292;28;20030;-72
2022/04/12 21:44:40;;;;;;;5.60;3.57;;;;;;;;;;10385177;28;20273;-71
2022/04/12 21:49:40;;;;;;;8.25;4.47;;;;;;;;;;10384741;28;20465;-78
2022/04/12 21:54:40;;;;;;;7.20;4.57;;;;;;;;;;10385174;28;20022;-71
2022/04/12 21:59:41;;;;;;;8.90;4.27;;;;;;;;;;10402023;28;20047;-73
2022/04/12 22:04:43;;;;;;;5.78;3.92;;;;;;;;;;10401024;28;20064;-74
2022/04/12 22:09:43;;;;;;;7.40;4.68;;;;;;;;;;10401705;28;20432;-76
2022/04/12 22:14:43;;;;;;;7.47;4.90;;;;;;;;;;10400683;28;20021;-77
2022/04/12 22:19:44;;;;;;;11.32;4.10;;;;;;;;;;10401828;28;20483;-75
2022/04/12 22:24:44;;;;;;;7.55;3.95;;;;;;;;;;10407136;28;20660;-71
2022/04/12 22:29:44;;;;;;;5.55;4.15;;;;;;;;;;10408449;28;20192;-70
2022/04/12 22:34:45;;;;;;;7.18;4.90;;;;;;;;;;10408261;28;20512;-78
2022/04/12 22:39:45;;;;;;;9.20;4.93;;;;;;;;;;10407737;28;20386;-71
2022/04/12 22:44:45;;;;;;;5.72;4.82;;;;;;;;;;10391303;28;20031;-76
2022/04/12 22:49:46;;;;;;;7.15;4.75;;;;;;;;;;10407433;28;20529;-71
2022/04/12 22:54:46;;;;;;;4.78;4.22;;;;;;;;;;10407618;28;20025;-72
2022/04/12 22:59:46;;;;;;;5.82;4.55;;;;;;;;;;10390392;28;20052;-71
2022/04/12 23:04:47;;;;;;;8.90;5.28;;;;;;;;;;10407133;28;20031;-71
2022/04/12 23:09:47;;;;;;;6.28;4.22;;;;;;;;;;10406659;28;20017;-71
2022/04/12 23:14:48;;;;;;;7.30;4.83;;;;;;;;;;10406671;28;20063;-75
2022/04/12 23:19:48;;;;;;;6.72;4.78;;;;;;;;;;10419802;28;20268;-71
2022/04/12 23:24:48;;;;;;;9.30;5.40;;;;;;;;;;10406381;28;20034;-72
2022/04/12 23:29:49;;;;;;;11.73;5.47;;;;;;;;;;10389652;28;20109;-71
2022/04/12 23:34:49;;;;;;;13.73;5.55;;;;;;;;;;10407134;28;20397;-74
2022/04/12 23:39:49;;;;;;;9.82;5.93;;;;;;;;;;10424360;28;20033;-77
2022/04/12 23:44:51;;;;;;;11.77;5.93;;;;;;;;;;10446382;28;20112;-71
2022/04/12 23:49:51;;;;;;;8.35;5.28;;;;;;;;;;10446473;28;20044;-73
2022/04/12 23:54:51;;;;;;;9.90;6.53;;;;;;;;;;10446629;28;20029;-71
2022/04/12 23:59:52;;;;;;;9.70;6.88;;;;;;;;;;10447068;28;20424;-71
